sensor_id;sensor_type;location;lat;lon;timestamp;temperature;humidity
34873;DHT22;21084;51.098;14.506;2023-04-03T00:01:36;1.60;99.90
34873;DHT22;21084;51.098;14.506;2023-04-03T00:04:06;1.50;99.90
34873;DHT22;21084;51.098;14.506;2023-04-03T00:06:35;1.50;99.90
34873;DHT22;21084;51.098;14.506;2023-04-03T00:09:04;1.50;99.90
34873;DHT22;21084;51.098;14.506;2023-04-03T00:11:35;1.50;99.90
34873;DHT22;21084;51.098;14.506;2023-04-03T00:14:04;1.40;99.90
34873;DHT22;21084;51.098;14.506;2023-04-03T00:16:32;1.40;99.90
34873;DHT22;21084;51.098;14.506;2023-04-03T00:19:01;1.40;99.90
34873;DHT22;21084;51.098;14.506;2023-04-03T00:21:30;1.40;99.90
34873;DHT22;21084;51.098;14.506;2023-04-03T00:23:59;1.40;99.90
34873;DHT22;21084;51.098;14.506;2023-04-03T00:26:27;1.40;99.90
34873;DHT22;21084;51.098;14.506;2023-04-03T00:28:55;1.40;99.90
34873;DHT22;21084;51.098;14.506;2023-04-03T00:31:24;1.30;99.90
34873;DHT22;21084;51.098;14.506;2023-04-03T00:33:52;1.30;99.90
34873;DHT22;21084;51.098;14.506;2023-04-03T00:36:21;1.30;99.90
34873;DHT22;21084;51.098;14.506;2023-04-03T00:38:51;1.20;99.90
34873;DHT22;21084;51.098;14.506;2023-04-03T00:41:19;1.20;99.90
34873;DHT22;21084;51.098;14.506;2023-04-03T00:43:48;1.20;99.90
34873;DHT22;21084;51.098;14.506;2023-04-03T00:46:17;1.20;99.90
34873;DHT22;21084;51.098;14.506;2023-04-03T00:48:48;1.20;99.90
34873;DHT22;21084;51.098;14.506;2023-04-03T00:51:21;1.20;99.90
34873;DHT22;21084;51.098;14.506;2023-04-03T00:53:55;1.10;99.90
34873;DHT22;21084;51.098;14.506;2023-04-03T00:56:27;1.10;99.90
34873;DHT22;21084;51.098;14.506;2023-04-03T00:58:59;1.10;99.90
34873;DHT22;21084;51.098;14.506;2023-04-03T01:01:29;1.10;99.90
34873;DHT22;21084;51.098;14.506;2023-04-03T01:03:59;1.10;99.90
34873;DHT22;21084;51.098;14.506;2023-04-03T01:06:33;1.10;99.90
34873;DHT22;21084;51.098;14.506;2023-04-03T01:09:04;1.00;99.90
34873;DHT22;21084;51.098;14.506;2023-04-03T01:11:33;0.90;99.90
34873;DHT22;21084;51.098;14.506;2023-04-03T01:14:01;0.90;99.90
34873;DHT22;21084;51.098;14.506;2023-04-03T01:16:30;0.80;99.90
34873;DHT22;21084;51.098;14.506;2023-04-03T01:18:59;0.80;99.90
34873;DHT22;21084;51.098;14.506;2023-04-03T01:21:49;0.80;99.90
34873;DHT22;21084;51.098;14.506;2023-04-03T01:24:33;0.70;99.90
34873;DHT22;21084;51.098;14.506;2023-04-03T01:27:05;0.70;99.90
34873;DHT22;21084;51.098;14.506;2023-04-03T01:29:35;0.60;99.90
34873;DHT22;21084;51.098;14.506;2023-04-03T01:32:05;0.60;99.90
34873;DHT22;21084;51.098;14.506;2023-04-03T01:34:34;0.60;99.90
34873;DHT22;21084;51.098;14.506;2023-04-03T01:37:02;0.60;99.90
34873;DHT22;21084;51.098;14.506;2023-04-03T01:39:31;0.50;99.90
34873;DHT22;21084;51.098;14.506;2023-04-03T01:41:59;0.50;99.90
34873;DHT22;21084;51.098;14.506;2023-04-03T01:44:28;0.40;99.90
34873;DHT22;21084;51.098;14.506;2023-04-03T01:46:56;0.30;99.90
34873;DHT22;21084;51.098;14.506;2023-04-03T01:49:26;0.30;99.90
34873;DHT22;21084;51.098;14.506;2023-04-03T01:51:54;0.20;99.90
34873;DHT22;21084;51.098;14.506;2023-04-03T01:54:23;0.20;99.90
34873;DHT22;21084;51.098;14.506;2023-04-03T01:56:51;0.10;99.90
34873;DHT22;21084;51.098;14.506;2023-04-03T01:59:20;0.00;99.90
34873;DHT22;21084;51.098;14.506;2023-04-03T02:01:48;0.00;99.90
34873;DHT22;21084;51.098;14.506;2023-04-03T02:04:17;0.00;99.90
34873;DHT22;21084;51.098;14.506;2023-04-03T02:06:47;-0.10;99.90
34873;DHT22;21084;51.098;14.506;2023-04-03T02:09:15;-0.10;99.90
34873;DHT22;21084;51.098;14.506;2023-04-03T02:11:44;-0.20;99.90
34873;DHT22;21084;51.098;14.506;2023-04-03T02:14:13;-0.30;99.90
34873;DHT22;21084;51.098;14.506;2023-04-03T02:16:41;-0.30;99.90
34873;DHT22;21084;51.098;14.506;2023-04-03T02:19:10;-0.40;99.90
34873;DHT22;21084;51.098;14.506;2023-04-03T02:21:38;-0.40;99.90
34873;DHT22;21084;51.098;14.506;2023-04-03T02:24:08;-0.40;99.90
34873;DHT22;21084;51.098;14.506;2023-04-03T02:26:36;-0.40;99.90
34873;DHT22;21084;51.098;14.506;2023-04-03T02:29:05;-0.50;99.90
34873;DHT22;21084;51.098;14.506;2023-04-03T02:31:33;-0.60;99.90
34873;DHT22;21084;51.098;14.506;2023-04-03T02:34:02;-0.60;99.90
34873;DHT22;21084;51.098;14.506;2023-04-03T02:36:30;-0.60;99.90
34873;DHT22;21084;51.098;14.506;2023-04-03T02:38:59;-0.60;99.90
34873;DHT22;21084;51.098;14.506;2023-04-03T02:41:29;-0.70;99.90
34873;DHT22;21084;51.098;14.506;2023-04-03T02:44:03;-0.70;99.90
34873;DHT22;21084;51.098;14.506;2023-04-03T02:46:32;-0.80;99.90
34873;DHT22;21084;51.098;14.506;2023-04-03T02:49:01;-0.80;99.90
34873;DHT22;21084;51.098;14.506;2023-04-03T02:51:30;-0.90;99.90
34873;DHT22;21084;51.098;14.506;2023-04-03T02:53:58;-1.00;99.90
34873;DHT22;21084;51.098;14.506;2023-04-03T02:56:28;-1.10;99.90
34873;DHT22;21084;51.098;14.506;2023-04-03T02:58:57;-1.10;99.90
34873;DHT22;21084;51.098;14.506;2023-04-03T03:01:26;-1.10;99.90
34873;DHT22;21084;51.098;14.506;2023-04-03T03:03:59;-1.10;99.90
34873;DHT22;21084;51.098;14.506;2023-04-03T03:06:28;-1.10;99.90
34873;DHT22;21084;51.098;14.506;2023-04-03T03:08:56;-1.10;99.90
34873;DHT22;21084;51.098;14.506;2023-04-03T03:11:25;-1.00;99.90
34873;DHT22;21084;51.098;14.506;2023-04-03T03:13:54;-1.20;99.90
34873;DHT22;21084;51.098;14.506;2023-04-03T03:16:23;-1.20;99.90
34873;DHT22;21084;51.098;14.506;2023-04-03T03:18:52;-1.10;99.90
34873;DHT22;21084;51.098;14.506;2023-04-03T03:21:20;-1.10;99.90
34873;DHT22;21084;51.098;14.506;2023-04-03T03:23:49;-1.20;99.90
34873;DHT22;21084;51.098;14.506;2023-04-03T03:26:17;-1.30;99.90
34873;DHT22;21084;51.098;14.506;2023-04-03T03:28:46;-1.30;99.90
34873;DHT22;21084;51.098;14.506;2023-04-03T03:31:16;-1.40;99.90
34873;DHT22;21084;51.098;14.506;2023-04-03T03:33:45;-1.40;99.90
34873;DHT22;21084;51.098;14.506;2023-04-03T03:36:13;-1.50;99.90
34873;DHT22;21084;51.098;14.506;2023-04-03T03:38:42;-1.50;99.90
34873;DHT22;21084;51.098;14.506;2023-04-03T03:41:10;-1.50;99.90
34873;DHT22;21084;51.098;14.506;2023-04-03T03:43:39;-1.40;99.90
34873;DHT22;21084;51.098;14.506;2023-04-03T03:46:08;-1.50;99.90
34873;DHT22;21084;51.098;14.506;2023-04-03T03:48:38;-1.60;99.90
34873;DHT22;21084;51.098;14.506;2023-04-03T03:51:07;-1.60;99.90
34873;DHT22;21084;51.098;14.506;2023-04-03T03:53:35;-1.70;99.90
34873;DHT22;21084;51.098;14.506;2023-04-03T03:56:04;-1.70;99.90
34873;DHT22;21084;51.098;14.506;2023-04-03T03:58:33;-1.70;99.90
34873;DHT22;21084;51.098;14.506;2023-04-03T04:01:02;-1.70;99.90
34873;DHT22;21084;51.098;14.506;2023-04-03T04:03:31;-1.70;99.90
34873;DHT22;21084;51.098;14.506;2023-04-03T04:06:01;-1.70;99.90
34873;DHT22;21084;51.098;14.506;2023-04-03T04:08:30;-1.70;99.90
34873;DHT22;21084;51.098;14.506;2023-04-03T04:10:58;-1.70;99.90
34873;DHT22;21084;51.098;14.506;2023-04-03T04:13:26;-1.70;99.90
34873;DHT22;21084;51.098;14.506;2023-04-03T04:15:55;-1.60;99.90
34873;DHT22;21084;51.098;14.506;2023-04-03T04:18:23;-1.60;99.90
34873;DHT22;21084;51.098;14.506;2023-04-03T04:20:52;-1.60;99.90
34873;DHT22;21084;51.098;14.506;2023-04-03T04:23:22;-1.60;99.90
34873;DHT22;21084;51.098;14.506;2023-04-03T04:25:50;-1.60;99.90
34873;DHT22;21084;51.098;14.506;2023-04-03T04:28:19;-1.60;99.90
34873;DHT22;21084;51.098;14.506;2023-04-03T04:30:47;-1.50;99.90
34873;DHT22;21084;51.098;14.506;2023-04-03T04:33:16;-1.50;99.90
34873;DHT22;21084;51.098;14.506;2023-04-03T04:35:46;-1.50;99.90
34873;DHT22;21084;51.098;14.506;2023-04-03T04:38:15;-1.40;99.90
34873;DHT22;21084;51.098;14.506;2023-04-03T04:40:45;-1.40;99.90
34873;DHT22;21084;51.098;14.506;2023-04-03T04:43:13;-1.30;99.90
34873;DHT22;21084;51.098;14.506;2023-04-03T04:45:42;-1.30;99.90
34873;DHT22;21084;51.098;14.506;2023-04-03T04:48:10;-1.20;99.90
34873;DHT22;21084;51.098;14.506;2023-04-03T04:50:39;-1.20;99.90
34873;DHT22;21084;51.098;14.506;2023-04-03T04:53:07;-1.10;99.90
34873;DHT22;21084;51.098;14.506;2023-04-03T04:55:36;-1.10;99.90
34873;DHT22;21084;51.098;14.506;2023-04-03T04:58:06;-1.10;99.90
34873;DHT22;21084;51.098;14.506;2023-04-03T05:00:35;-1.00;99.90
34873;DHT22;21084;51.098;14.506;2023-04-03T05:03:03;-1.00;99.90
34873;DHT22;21084;51.098;14.506;2023-04-03T05:05:32;-1.00;99.90
34873;DHT22;21084;51.098;14.506;2023-04-03T05:08:00;-1.00;99.90
34873;DHT22;21084;51.098;14.506;2023-04-03T05:10:29;-0.90;99.90
34873;DHT22;21084;51.098;14.506;2023-04-03T05:12:58;-0.90;99.90
34873;DHT22;21084;51.098;14.506;2023-04-03T05:15:28;-0.80;99.90
34873;DHT22;21084;51.098;14.506;2023-04-03T05:17:56;-0.80;99.90
34873;DHT22;21084;51.098;14.506;2023-04-03T05:20:25;-0.80;99.90
34873;DHT22;21084;51.098;14.506;2023-04-03T05:22:53;-0.70;99.90
34873;DHT22;21084;51.098;14.506;2023-04-03T05:25:22;-0.70;99.90
34873;DHT22;21084;51.098;14.506;2023-04-03T05:27:53;-0.60;99.90
34873;DHT22;21084;51.098;14.506;2023-04-03T05:30:22;-0.50;99.90
34873;DHT22;21084;51.098;14.506;2023-04-03T05:32:51;-0.50;99.90
34873;DHT22;21084;51.098;14.506;2023-04-03T05:35:20;-0.40;99.90
34873;DHT22;21084;51.098;14.506;2023-04-03T05:37:49;-0.40;99.90
34873;DHT22;21084;51.098;14.506;2023-04-03T05:40:17;-0.40;99.90
34873;DHT22;21084;51.098;14.506;2023-04-03T05:42:46;-0.40;99.90
34873;DHT22;21084;51.098;14.506;2023-04-03T05:45:15;-0.40;99.90
34873;DHT22;21084;51.098;14.506;2023-04-03T05:47:43;-0.20;99.90
34873;DHT22;21084;51.098;14.506;2023-04-03T05:50:13;-0.10;99.90
34873;DHT22;21084;51.098;14.506;2023-04-03T05:52:44;-0.10;99.90
34873;DHT22;21084;51.098;14.506;2023-04-03T05:55:13;0.00;99.90
34873;DHT22;21084;51.098;14.506;2023-04-03T05:57:42;0.10;99.90
34873;DHT22;21084;51.098;14.506;2023-04-03T06:00:13;0.00;99.90
34873;DHT22;21084;51.098;14.506;2023-04-03T06:02:42;0.10;99.90
34873;DHT22;21084;51.098;14.506;2023-04-03T06:05:12;0.20;99.90
34873;DHT22;21084;51.098;14.506;2023-04-03T06:07:41;0.40;99.90
34873;DHT22;21084;51.098;14.506;2023-04-03T06:10:12;0.50;99.90
34873;DHT22;21084;51.098;14.506;2023-04-03T06:12:40;0.50;99.90
34873;DHT22;21084;51.098;14.506;2023-04-03T06:15:09;0.50;99.90
34873;DHT22;21084;51.098;14.506;2023-04-03T06:17:38;0.70;99.90
34873;DHT22;21084;51.098;14.506;2023-04-03T06:20:07;0.90;99.90
34873;DHT22;21084;51.098;14.506;2023-04-03T06:22:37;0.90;99.90
34873;DHT22;21084;51.098;14.506;2023-04-03T06:25:07;1.00;99.90
34873;DHT22;21084;51.098;14.506;2023-04-03T06:27:36;1.10;99.90
34873;DHT22;21084;51.098;14.506;2023-04-03T06:30:06;1.00;99.90
34873;DHT22;21084;51.098;14.506;2023-04-03T06:32:35;1.00;99.90
34873;DHT22;21084;51.098;14.506;2023-04-03T06:35:05;1.10;99.90
34873;DHT22;21084;51.098;14.506;2023-04-03T06:37:34;1.10;99.90
34873;DHT22;21084;51.098;14.506;2023-04-03T06:40:05;1.10;99.90
34873;DHT22;21084;51.098;14.506;2023-04-03T06:42:34;1.20;99.90
34873;DHT22;21084;51.098;14.506;2023-04-03T06:45:03;1.40;99.90
34873;DHT22;21084;51.098;14.506;2023-04-03T06:47:32;1.30;99.90
34873;DHT22;21084;51.098;14.506;2023-04-03T06:50:00;1.30;99.90
34873;DHT22;21084;51.098;14.506;2023-04-03T06:52:29;1.40;99.90
34873;DHT22;21084;51.098;14.506;2023-04-03T06:54:57;1.60;99.90
34873;DHT22;21084;51.098;14.506;2023-04-03T06:57:28;1.70;99.90
34873;DHT22;21084;51.098;14.506;2023-04-03T06:59:56;2.00;99.90
34873;DHT22;21084;51.098;14.506;2023-04-03T07:02:25;2.00;99.90
34873;DHT22;21084;51.098;14.506;2023-04-03T07:04:54;2.10;99.90
34873;DHT22;21084;51.098;14.506;2023-04-03T07:07:23;2.10;99.90
34873;DHT22;21084;51.098;14.506;2023-04-03T07:09:51;1.50;99.90
34873;DHT22;21084;51.098;14.506;2023-04-03T07:12:20;1.60;99.90
34873;DHT22;21084;51.098;14.506;2023-04-03T07:14:50;1.90;99.90
34873;DHT22;21084;51.098;14.506;2023-04-03T07:17:18;2.00;99.90
34873;DHT22;21084;51.098;14.506;2023-04-03T07:19:47;2.10;99.90
34873;DHT22;21084;51.098;14.506;2023-04-03T07:22:15;2.10;99.90
34873;DHT22;21084;51.098;14.506;2023-04-03T07:24:44;2.30;99.90
34873;DHT22;21084;51.098;14.506;2023-04-03T07:27:12;2.40;99.90
34873;DHT22;21084;51.098;14.506;2023-04-03T07:29:40;2.50;99.90
34873;DHT22;21084;51.098;14.506;2023-04-03T07:32:11;2.70;99.90
34873;DHT22;21084;51.098;14.506;2023-04-03T07:34:40;3.10;99.90
34873;DHT22;21084;51.098;14.506;2023-04-03T07:37:09;3.30;99.90
34873;DHT22;21084;51.098;14.506;2023-04-03T07:39:38;3.30;99.90
34873;DHT22;21084;51.098;14.506;2023-04-03T07:42:07;3.70;99.90
34873;DHT22;21084;51.098;14.506;2023-04-03T07:44:36;3.90;99.90
34873;DHT22;21084;51.098;14.506;2023-04-03T07:47:05;4.00;99.90
34873;DHT22;21084;51.098;14.506;2023-04-03T07:49:35;3.90;99.90
34873;DHT22;21084;51.098;14.506;2023-04-03T07:52:06;3.50;99.90
34873;DHT22;21084;51.098;14.506;2023-04-03T07:54:36;3.40;99.90
34873;DHT22;21084;51.098;14.506;2023-04-03T07:57:04;3.40;99.90
34873;DHT22;21084;51.098;14.506;2023-04-03T07:59:33;3.90;99.90
34873;DHT22;21084;51.098;14.506;2023-04-03T08:02:02;3.90;99.90
34873;DHT22;21084;51.098;14.506;2023-04-03T08:04:32;4.70;99.90
34873;DHT22;21084;51.098;14.506;2023-04-03T08:07:02;4.80;99.90
34873;DHT22;21084;51.098;14.506;2023-04-03T08:09:30;5.50;99.90
34873;DHT22;21084;51.098;14.506;2023-04-03T08:11:59;5.80;99.90
34873;DHT22;21084;51.098;14.506;2023-04-03T08:14:30;5.70;99.90
34873;DHT22;21084;51.098;14.506;2023-04-03T08:17:01;5.30;99.90
34873;DHT22;21084;51.098;14.506;2023-04-03T08:19:31;5.90;99.90
34873;DHT22;21084;51.098;14.506;2023-04-03T08:22:01;5.70;99.90
34873;DHT22;21084;51.098;14.506;2023-04-03T08:24:30;6.00;99.90
34873;DHT22;21084;51.098;14.506;2023-04-03T08:26:59;5.90;99.90
34873;DHT22;21084;51.098;14.506;2023-04-03T08:29:28;5.80;99.90
34873;DHT22;21084;51.098;14.506;2023-04-03T08:31:58;5.30;99.90
34873;DHT22;21084;51.098;14.506;2023-04-03T08:34:26;5.60;99.90
34873;DHT22;21084;51.098;14.506;2023-04-03T08:36:54;6.00;99.90
34873;DHT22;21084;51.098;14.506;2023-04-03T08:39:24;6.20;99.90
34873;DHT22;21084;51.098;14.506;2023-04-03T08:41:53;6.40;99.90
34873;DHT22;21084;51.098;14.506;2023-04-03T08:44:25;6.40;99.90
34873;DHT22;21084;51.098;14.506;2023-04-03T08:47:04;6.30;99.90
34873;DHT22;21084;51.098;14.506;2023-04-03T08:49:41;6.70;99.90
34873;DHT22;21084;51.098;14.506;2023-04-03T08:52:18;6.50;99.90
34873;DHT22;21084;51.098;14.506;2023-04-03T08:54:54;5.40;99.90
34873;DHT22;21084;51.098;14.506;2023-04-03T08:57:29;5.40;99.90
34873;DHT22;21084;51.098;14.506;2023-04-03T09:00:01;4.70;99.90
34873;DHT22;21084;51.098;14.506;2023-04-03T09:02:33;4.60;99.90
34873;DHT22;21084;51.098;14.506;2023-04-03T09:05:11;4.50;99.90
34873;DHT22;21084;51.098;14.506;2023-04-03T09:07:43;4.80;99.90
34873;DHT22;21084;51.098;14.506;2023-04-03T09:10:22;4.30;99.90
34873;DHT22;21084;51.098;14.506;2023-04-03T09:12:59;4.40;99.90
34873;DHT22;21084;51.098;14.506;2023-04-03T09:15:28;4.30;99.90
34873;DHT22;21084;51.098;14.506;2023-04-03T09:18:10;5.00;99.90
34873;DHT22;21084;51.098;14.506;2023-04-03T09:20:46;5.40;99.90
34873;DHT22;21084;51.098;14.506;2023-04-03T09:23:20;5.10;99.90
34873;DHT22;21084;51.098;14.506;2023-04-03T09:25:54;5.00;99.90
34873;DHT22;21084;51.098;14.506;2023-04-03T09:28:24;4.70;99.90
34873;DHT22;21084;51.098;14.506;2023-04-03T09:30:55;4.90;99.90
34873;DHT22;21084;51.098;14.506;2023-04-03T09:33:23;5.00;99.90
34873;DHT22;21084;51.098;14.506;2023-04-03T09:35:52;5.00;99.90
34873;DHT22;21084;51.098;14.506;2023-04-03T09:38:21;5.50;99.90
34873;DHT22;21084;51.098;14.506;2023-04-03T09:41:05;6.80;99.90
34873;DHT22;21084;51.098;14.506;2023-04-03T09:43:35;7.20;99.90
34873;DHT22;21084;51.098;14.506;2023-04-03T09:46:30;8.70;99.90
34873;DHT22;21084;51.098;14.506;2023-04-03T09:49:01;9.90;99.90
34873;DHT22;21084;51.098;14.506;2023-04-03T09:51:33;9.70;99.90
34873;DHT22;21084;51.098;14.506;2023-04-03T09:54:31;8.10;99.90
34873;DHT22;21084;51.098;14.506;2023-04-03T09:57:06;7.30;99.90
34873;DHT22;21084;51.098;14.506;2023-04-03T09:59:36;6.50;99.90
34873;DHT22;21084;51.098;14.506;2023-04-03T10:02:22;6.60;99.90
34873;DHT22;21084;51.098;14.506;2023-04-03T10:04:52;7.20;99.90
34873;DHT22;21084;51.098;14.506;2023-04-03T10:07:37;9.30;99.90
34873;DHT22;21084;51.098;14.506;2023-04-03T10:10:19;9.30;99.90
34873;DHT22;21084;51.098;14.506;2023-04-03T10:13:04;8.60;99.90
34873;DHT22;21084;51.098;14.506;2023-04-03T10:15:36;8.30;99.90
34873;DHT22;21084;51.098;14.506;2023-04-03T10:18:24;8.10;99.90
34873;DHT22;21084;51.098;14.506;2023-04-03T10:20:59;7.40;99.90
34873;DHT22;21084;51.098;14.506;2023-04-03T10:23:37;7.10;99.90
34873;DHT22;21084;51.098;14.506;2023-04-03T10:26:15;6.90;99.90
34873;DHT22;21084;51.098;14.506;2023-04-03T10:28:52;7.10;99.90
34873;DHT22;21084;51.098;14.506;2023-04-03T10:31:26;7.20;99.90
34873;DHT22;21084;51.098;14.506;2023-04-03T10:34:05;7.60;99.90
34873;DHT22;21084;51.098;14.506;2023-04-03T10:36:40;9.80;99.90
34873;DHT22;21084;51.098;14.506;2023-04-03T10:39:17;11.20;99.90
34873;DHT22;21084;51.098;14.506;2023-04-03T10:41:56;12.10;98.40
34873;DHT22;21084;51.098;14.506;2023-04-03T10:44:55;10.60;95.50
34873;DHT22;21084;51.098;14.506;2023-04-03T10:47:28;9.20;95.50
34873;DHT22;21084;51.098;14.506;2023-04-03T10:50:15;8.50;97.70
34873;DHT22;21084;51.098;14.506;2023-04-03T10:52:55;8.20;97.10
34873;DHT22;21084;51.098;14.506;2023-04-03T10:55:34;7.60;98.00
34873;DHT22;21084;51.098;14.506;2023-04-03T10:58:06;7.20;98.00
34873;DHT22;21084;51.098;14.506;2023-04-03T11:00:40;7.00;98.80
34873;DHT22;21084;51.098;14.506;2023-04-03T11:03:14;6.80;98.30
34873;DHT22;21084;51.098;14.506;2023-04-03T11:05:45;7.40;99.50
34873;DHT22;21084;51.098;14.506;2023-04-03T11:08:24;7.90;99.90
34873;DHT22;21084;51.098;14.506;2023-04-03T11:10:54;7.90;99.50
34873;DHT22;21084;51.098;14.506;2023-04-03T11:13:27;7.40;99.40
34873;DHT22;21084;51.098;14.506;2023-04-03T11:16:01;7.30;99.90
34873;DHT22;21084;51.098;14.506;2023-04-03T11:18:35;7.00;99.90
34873;DHT22;21084;51.098;14.506;2023-04-03T11:21:08;6.40;99.90
34873;DHT22;21084;51.098;14.506;2023-04-03T11:23:39;7.10;99.90
34873;DHT22;21084;51.098;14.506;2023-04-03T11:26:18;7.00;99.90
34873;DHT22;21084;51.098;14.506;2023-04-03T11:28:52;7.20;99.90
34873;DHT22;21084;51.098;14.506;2023-04-03T11:31:43;7.60;99.90
34873;DHT22;21084;51.098;14.506;2023-04-03T11:34:26;8.10;99.90
34873;DHT22;21084;51.098;14.506;2023-04-03T11:37:01;8.50;99.90
34873;DHT22;21084;51.098;14.506;2023-04-03T11:39:34;8.30;99.30
34873;DHT22;21084;51.098;14.506;2023-04-03T11:42:15;8.20;96.90
34873;DHT22;21084;51.098;14.506;2023-04-03T11:44:45;8.40;97.40
34873;DHT22;21084;51.098;14.506;2023-04-03T11:47:45;8.20;96.50
34873;DHT22;21084;51.098;14.506;2023-04-03T11:50:39;8.60;95.80
34873;DHT22;21084;51.098;14.506;2023-04-03T11:53:34;8.50;95.80
34873;DHT22;21084;51.098;14.506;2023-04-03T11:56:30;7.80;95.30
34873;DHT22;21084;51.098;14.506;2023-04-03T11:59:24;7.40;97.30
34873;DHT22;21084;51.098;14.506;2023-04-03T12:01:54;7.00;98.80
34873;DHT22;21084;51.098;14.506;2023-04-03T12:04:25;6.40;99.40
34873;DHT22;21084;51.098;14.506;2023-04-03T12:10:14;5.70;99.90
34873;DHT22;21084;51.098;14.506;2023-04-03T12:12:59;6.00;99.90
34873;DHT22;21084;51.098;14.506;2023-04-03T12:15:50;6.40;99.90
34873;DHT22;21084;51.098;14.506;2023-04-03T12:18:41;6.90;99.90
34873;DHT22;21084;51.098;14.506;2023-04-03T12:21:12;7.10;99.90
34873;DHT22;21084;51.098;14.506;2023-04-03T12:24:03;7.00;99.90
34873;DHT22;21084;51.098;14.506;2023-04-03T12:26:38;7.20;99.90
34873;DHT22;21084;51.098;14.506;2023-04-03T12:29:17;6.90;99.90
34873;DHT22;21084;51.098;14.506;2023-04-03T12:31:58;7.30;99.50
34873;DHT22;21084;51.098;14.506;2023-04-03T12:34:46;7.80;99.90
34873;DHT22;21084;51.098;14.506;2023-04-03T12:37:31;8.10;97.90
34873;DHT22;21084;51.098;14.506;2023-04-03T12:40:10;8.50;97.70
34873;DHT22;21084;51.098;14.506;2023-04-03T12:43:03;8.70;99.00
34873;DHT22;21084;51.098;14.506;2023-04-03T12:45:41;8.90;97.80
34873;DHT22;21084;51.098;14.506;2023-04-03T12:48:17;8.80;96.80
34873;DHT22;21084;51.098;14.506;2023-04-03T12:50:46;8.50;95.30
34873;DHT22;21084;51.098;14.506;2023-04-03T12:53:19;8.00;96.40
34873;DHT22;21084;51.098;14.506;2023-04-03T12:55:53;8.20;97.50
34873;DHT22;21084;51.098;14.506;2023-04-03T12:58:23;8.40;97.50
34873;DHT22;21084;51.098;14.506;2023-04-03T13:01:01;8.20;96.10
34873;DHT22;21084;51.098;14.506;2023-04-03T13:03:30;7.60;96.40
34873;DHT22;21084;51.098;14.506;2023-04-03T13:06:01;7.60;96.90
34873;DHT22;21084;51.098;14.506;2023-04-03T13:08:32;7.70;96.50
34873;DHT22;21084;51.098;14.506;2023-04-03T13:11:02;8.00;96.30
34873;DHT22;21084;51.098;14.506;2023-04-03T13:13:32;8.00;95.40
34873;DHT22;21084;51.098;14.506;2023-04-03T13:16:08;8.10;94.00
34873;DHT22;21084;51.098;14.506;2023-04-03T13:18:37;8.40;95.60
34873;DHT22;21084;51.098;14.506;2023-04-03T13:21:12;8.30;92.40
34873;DHT22;21084;51.098;14.506;2023-04-03T13:23:47;8.10;93.70
34873;DHT22;21084;51.098;14.506;2023-04-03T13:26:25;8.90;93.70
34873;DHT22;21084;51.098;14.506;2023-04-03T13:28:59;9.20;91.30
34873;DHT22;21084;51.098;14.506;2023-04-03T13:31:30;9.00;92.10
34873;DHT22;21084;51.098;14.506;2023-04-03T13:34:03;8.50;91.50
34873;DHT22;21084;51.098;14.506;2023-04-03T13:36:35;8.30;92.30
34873;DHT22;21084;51.098;14.506;2023-04-03T13:39:21;8.00;93.00
34873;DHT22;21084;51.098;14.506;2023-04-03T13:41:51;7.40;93.80
34873;DHT22;21084;51.098;14.506;2023-04-03T13:44:32;6.80;95.40
34873;DHT22;21084;51.098;14.506;2023-04-03T13:47:16;6.20;96.60
34873;DHT22;21084;51.098;14.506;2023-04-03T13:49:46;6.00;97.00
34873;DHT22;21084;51.098;14.506;2023-04-03T13:52:29;6.00;97.30
34873;DHT22;21084;51.098;14.506;2023-04-03T13:55:03;6.10;97.30
34873;DHT22;21084;51.098;14.506;2023-04-03T13:57:51;6.40;96.80
34873;DHT22;21084;51.098;14.506;2023-04-03T14:00:22;6.70;97.60
34873;DHT22;21084;51.098;14.506;2023-04-03T14:02:57;6.70;96.30
34873;DHT22;21084;51.098;14.506;2023-04-03T14:05:25;6.60;96.50
34873;DHT22;21084;51.098;14.506;2023-04-03T14:07:54;6.50;97.40
34873;DHT22;21084;51.098;14.506;2023-04-03T14:10:25;6.40;97.10
34873;DHT22;21084;51.098;14.506;2023-04-03T14:12:54;5.60;97.80
34873;DHT22;21084;51.098;14.506;2023-04-03T14:15:26;5.40;97.30
34873;DHT22;21084;51.098;14.506;2023-04-03T14:17:55;5.20;97.30
34873;DHT22;21084;51.098;14.506;2023-04-03T14:20:27;5.20;97.80
34873;DHT22;21084;51.098;14.506;2023-04-03T14:22:55;5.50;98.60
34873;DHT22;21084;51.098;14.506;2023-04-03T14:25:25;5.60;99.00
34873;DHT22;21084;51.098;14.506;2023-04-03T14:27:53;5.80;97.10
34873;DHT22;21084;51.098;14.506;2023-04-03T14:30:25;5.60;96.80
34873;DHT22;21084;51.098;14.506;2023-04-03T14:32:54;5.50;96.20
34873;DHT22;21084;51.098;14.506;2023-04-03T14:35:23;5.30;96.80
34873;DHT22;21084;51.098;14.506;2023-04-03T14:37:53;5.30;97.50
34873;DHT22;21084;51.098;14.506;2023-04-03T14:40:25;5.80;96.80
34873;DHT22;21084;51.098;14.506;2023-04-03T14:42:54;5.50;97.80
34873;DHT22;21084;51.098;14.506;2023-04-03T14:45:24;5.50;98.90
34873;DHT22;21084;51.098;14.506;2023-04-03T14:47:54;5.80;98.50
34873;DHT22;21084;51.098;14.506;2023-04-03T14:50:26;5.40;98.80
34873;DHT22;21084;51.098;14.506;2023-04-03T14:52:57;5.50;99.90
34873;DHT22;21084;51.098;14.506;2023-04-03T14:55:27;5.80;99.10
34873;DHT22;21084;51.098;14.506;2023-04-03T14:57:56;5.70;97.90
34873;DHT22;21084;51.098;14.506;2023-04-03T15:00:25;5.40;97.80
34873;DHT22;21084;51.098;14.506;2023-04-03T15:02:53;5.10;97.30
34873;DHT22;21084;51.098;14.506;2023-04-03T15:05:22;5.00;96.60
34873;DHT22;21084;51.098;14.506;2023-04-03T15:07:53;4.90;96.70
34873;DHT22;21084;51.098;14.506;2023-04-03T15:10:24;4.90;98.00
34873;DHT22;21084;51.098;14.506;2023-04-03T15:12:55;5.70;99.20
34873;DHT22;21084;51.098;14.506;2023-04-03T15:15:26;6.30;99.30
34873;DHT22;21084;51.098;14.506;2023-04-03T15:17:57;7.40;96.80
34873;DHT22;21084;51.098;14.506;2023-04-03T15:20:27;7.80;95.70
34873;DHT22;21084;51.098;14.506;2023-04-03T15:22:58;8.50;97.00
34873;DHT22;21084;51.098;14.506;2023-04-03T15:25:28;9.20;95.70
34873;DHT22;21084;51.098;14.506;2023-04-03T15:27:58;9.10;93.40
34873;DHT22;21084;51.098;14.506;2023-04-03T15:30:26;7.90;94.30
34873;DHT22;21084;51.098;14.506;2023-04-03T15:32:55;7.30;95.50
34873;DHT22;21084;51.098;14.506;2023-04-03T15:35:24;6.90;96.10
34873;DHT22;21084;51.098;14.506;2023-04-03T15:37:52;7.10;97.00
34873;DHT22;21084;51.098;14.506;2023-04-03T15:40:21;7.20;96.50
34873;DHT22;21084;51.098;14.506;2023-04-03T15:42:49;7.00;95.60
34873;DHT22;21084;51.098;14.506;2023-04-03T15:45:22;6.40;95.40
34873;DHT22;21084;51.098;14.506;2023-04-03T15:47:50;6.10;96.20
34873;DHT22;21084;51.098;14.506;2023-04-03T15:50:19;6.10;97.90
34873;DHT22;21084;51.098;14.506;2023-04-03T15:52:49;5.70;96.50
34873;DHT22;21084;51.098;14.506;2023-04-03T15:55:21;5.30;97.80
34873;DHT22;21084;51.098;14.506;2023-04-03T15:57:50;4.90;98.30
34873;DHT22;21084;51.098;14.506;2023-04-03T16:00:19;4.70;98.80